Flight Track Log - Related Links

Times and Time Zones

All times are in EDT time to prevent confusion due to time zone crossing. See the JBU56 flight status page for this flight to view local times or setup timezone preferences in your user account.

Time Position Orientation Groundspeed Altitude Reporting Facility
EDT Latitude Longitude Course Direction KTS MPH feet Rate Location/Type
Thu 10:07:53 AM 40.6000 -73.8000 14° North 153 176 1,700  Level New York TRACON
Thu 10:08:53 AM 40.5500 -73.8167 194° South 223 257 3,600 2,500 Climbing New York TRACON
Thu 10:09:00 AM 40.8892 -73.6304 21° North  Level FlightAware Approximate
Thu 10:09:53 AM 40.5667 -73.7333 75° East 276 318 6,700  Level New York TRACON
Thu 10:10:00 AM 40.9806 -73.5847 21° North  Level FlightAware Approximate
Thu 10:10:53 AM 40.6333 -73.6500 43° Northeast 300 345 9,900  Level New York TRACON
Thu 10:11:00 AM 41.0695 -73.5315 27° Northeast  Level FlightAware Approximate
Thu 10:11:59 AM 40.7000 -73.5667 43° Northeast 357 411 11,800  Level New York TRACON
Thu 10:12:00 AM 41.1567 -73.4733 27° Northeast  Level FlightAware Approximate
Thu 10:12:59 AM 40.8000 -73.5333 14° North 383 441 14,400  Level New York TRACON
Thu 10:13:00 AM 41.2391 -73.4370 14° North  Level FlightAware Approximate
Thu 10:13:59 AM 40.9167 -73.5167 North 389 448 16,900  Level New York TRACON
Thu 10:16:11 AM 41.1472 -73.4711 North 401 461 17,900 719 Climbing Boston Center
Thu 10:17:11 AM 41.2247 -73.4364 19° North 401 461 19,200 1,550 Climbing Boston Center
Thu 10:18:11 AM 41.3608 -73.3803 17° North 407 468 21,000 600 Climbing Boston Center
Thu 10:20:11 AM 41.5878 -73.3753 North 405 466 21,000  Level Boston Center
Thu 10:21:11 AM 41.7025 -73.3744 360° North 405 466 21,000  Level Boston Center
Thu 10:22:11 AM 41.8256 -73.3706 North 400 460 21,000  Level Boston Center
Thu 10:23:11 AM 41.9403 -73.3694 360° North 400 460 21,000  Level Boston Center
Thu 10:24:11 AM 42.0547 -73.3683 360° North 400 460 21,000  Level Boston Center
Thu 10:25:11 AM 42.1611 -73.3586 North 411 473 21,000  Level Boston Center
Thu 10:26:11 AM 42.2736 -73.3603 359° North 401 461 21,000  Level Boston Center
Thu 10:27:11 AM 42.3967 -73.3622 359° North 401 461 21,000  Level Boston Center
Thu 10:28:11 AM 42.5114 -73.3556 North 406 467 21,000  Level Boston Center
Thu 10:29:11 AM 42.6281 -73.3572 359° North 406 467 21,000  Level Boston Center
Thu 10:30:11 AM 42.7406 -73.3531 North 406 467 21,000  Level Boston Center
Thu 10:31:11 AM 42.8322 -73.3517 North 406 467 21,000  Level Boston Center
Thu 10:32:11 AM 42.9678 -73.3453 North 406 467 21,000  Level Boston Center
Thu 10:33:11 AM 43.0847 -73.3356 North 406 467 21,000  Level Boston Center
Thu 10:34:11 AM 43.1972 -73.3231 North 406 467 21,000  Level Boston Center
Thu 10:35:11 AM 43.3100 -73.3103 North 406 467 21,000 -350 Level Boston Center
Thu 10:36:11 AM 43.4225 -73.2978 North 406 467 20,300 -1,550 Descending Boston Center
Thu 10:37:11 AM 43.5353 -73.2850 North 406 467 17,900 -2,450 Descending Boston Center
Thu 10:38:11 AM 43.6436 -73.2722 North 406 467 15,400 -2,400 Descending Boston Center
Thu 10:39:11 AM 43.7458 -73.2619 North 384 442 13,100 -2,100 Descending Boston Center
Thu 10:40:11 AM 43.8250 -73.2517 North 372 428 11,200 -1,050 Descending Boston Center
Thu 10:41:11 AM 43.9231 -73.2386 North 332 382 11,000 -100 Descending Boston Center
Thu 10:42:11 AM 44.0044 -73.2281 North 299 344 11,000 -450 Level Boston Center
Thu 10:43:11 AM 44.0814 -73.2522 347° North 283 326 10,100 -1,400 Descending Boston Center
Thu 10:44:11 AM 44.1561 -73.2850 343° North 283 326 8,200 -1,750 Descending Boston Center
Thu 10:45:11 AM 44.2372 -73.2919 356° North 288 331 6,600 -1,100 Descending Boston Center
Thu 10:46:11 AM 44.3144 -73.2989 356° North 282 325 6,000 -750 Descending Boston Center
Thu 10:47:11 AM 44.3831 -73.3056 356° North 255 293 5,100 -1,000 Descending Boston Center
Thu 10:48:11 AM 44.4392 -73.3211 349° North 226 260 4,000 -1,100 Descending Boston Center
Thu 10:49:11 AM 44.4953 -73.3306 353° North 205 236 2,900 -900 Descending Boston Center
Thu 10:50:11 AM 44.5247 -73.2931 42° Northeast 146 168 2,200 -650 Descending Boston Center
Thu 10:51:11 AM 44.5231 -73.2378 92° East 110 127 1,600 -650 Descending Boston Center
Thu 10:52:11 AM 44.5006 -73.1997 130° Southeast 106 122 900 -700 Descending Boston Center

Login

Don't have an account? Register now (free) for customized features, flight alerts, and more!